Time;durP1;ratioP1;P1;durP2;ratioP2;P2;SDS_P1;SDS_P2;PMS_P1;PMS_P2;Temp;Humidity;BMP_temperature;BMP_pressure;BME280_temperature;BME280_humidity;BME280_pressure;Samples;Min_cycle;Max_cycle;Signal;HPM_P1;HPM_P2
2023/11/10 00:00:11;;;;;;;17.90;10.32;;;;;;;9.37;100.00;99915.03;5091373;28;20040;-44
2023/11/10 00:02:42;;;;;;;16.88;10.20;;;;;;;9.29;100.00;99912.84;5093448;28;20056;-47
2023/11/10 00:05:11;;;;;;;17.73;10.35;;;;;;;9.29;100.00;99919.97;5095036;28;20439;-43
2023/11/10 00:07:40;;;;;;;17.33;9.95;;;;;;;9.53;100.00;99921.13;5095477;28;20097;-42
2023/11/10 00:10:09;;;;;;;14.93;9.55;;;;;;;9.36;100.00;99918.63;5095660;28;20123;-43
2023/11/10 00:12:39;;;;;;;16.67;10.02;;;;;;;9.40;100.00;99920.19;5095455;28;20044;-44
2023/11/10 00:15:09;;;;;;;19.67;10.18;;;;;;;9.39;100.00;99921.97;5095128;28;20052;-44
2023/11/10 00:17:39;;;;;;;17.00;10.48;;;;;;;9.38;100.00;99912.28;5094829;28;20724;-43
2023/11/10 00:20:11;;;;;;;21.08;10.30;;;;;;;9.39;100.00;99908.66;5095354;28;20040;-43
2023/11/10 00:22:40;;;;;;;14.85;10.40;;;;;;;9.42;100.00;99911.13;5095222;28;20413;-44
2023/11/10 00:25:09;;;;;;;19.20;11.15;;;;;;;9.42;100.00;99912.94;5094919;28;20039;-43
2023/11/10 00:27:38;;;;;;;17.45;10.70;;;;;;;9.39;100.00;99913.13;5095093;28;20057;-43
2023/11/10 00:30:08;;;;;;;17.17;10.77;;;;;;;9.50;100.00;99916.00;5101671;28;20051;-44
2023/11/10 00:32:38;;;;;;;17.92;10.57;;;;;;;9.32;100.00;99917.97;5094954;28;20048;-43
2023/11/10 00:35:09;;;;;;;16.83;10.07;;;;;;;9.34;100.00;99915.22;5095271;28;20040;-43
2023/11/10 00:37:38;;;;;;;15.10;10.35;;;;;;;9.40;100.00;99914.84;5094927;28;20596;-44
2023/11/10 00:40:08;;;;;;;17.55;10.10;;;;;;;9.33;100.00;99916.16;5094928;28;20048;-47
2023/11/10 00:42:37;;;;;;;17.33;10.40;;;;;;;9.17;100.00;99908.25;5093519;28;20044;-44
2023/11/10 00:45:08;;;;;;;18.80;10.85;;;;;;;9.20;100.00;99902.75;5094537;28;20047;-43
2023/11/10 00:47:37;;;;;;;17.77;10.68;;;;;;;9.18;100.00;99894.84;5094924;28;20136;-44
2023/11/10 00:50:06;;;;;;;16.42;9.98;;;;;;;9.13;100.00;99894.25;5095129;28;20086;-43
2023/11/10 00:52:34;;;;;;;17.02;11.00;;;;;;;9.17;100.00;99892.28;5094894;28;20134;-44
2023/11/10 00:55:06;;;;;;;16.63;10.25;;;;;;;9.25;100.00;99889.16;5094985;28;20211;-44
2023/11/10 00:57:34;;;;;;;17.83;10.85;;;;;;;9.11;100.00;99888.19;5094624;28;20091;-44
2023/11/10 01:00:04;;;;;;;19.10;10.73;;;;;;;9.18;100.00;99884.22;5095241;28;20106;-44
2023/11/10 01:02:34;;;;;;;15.52;10.20;;;;;;;9.32;100.00;99880.72;5094816;28;20485;-44
2023/11/10 01:05:03;;;;;;;16.83;10.90;;;;;;;9.15;100.00;99875.53;5094508;28;20048;-45
2023/11/10 01:07:32;;;;;;;16.60;10.25;;;;;;;9.11;100.00;99872.22;5094627;28;20044;-43
2023/11/10 01:10:01;;;;;;;18.55;10.82;;;;;;;9.14;100.00;99863.19;5094756;28;20101;-45
2023/11/10 01:12:29;;;;;;;17.73;10.82;;;;;;;9.16;100.00;99870.13;5094563;28;20055;-44
2023/11/10 01:14:57;;;;;;;17.48;10.10;;;;;;;9.15;100.00;99865.75;5094556;28;20048;-43
2023/11/10 01:17:27;;;;;;;19.88;11.00;;;;;;;9.13;100.00;99865.00;5094323;28;20044;-43
2023/11/10 01:19:58;;;;;;;16.80;10.52;;;;;;;9.06;100.00;99863.63;5094270;28;20093;-44
2023/11/10 01:22:27;;;;;;;18.38;10.70;;;;;;;9.12;100.00;99863.28;5093911;28;20416;-43
2023/11/10 01:24:55;;;;;;;16.02;10.48;;;;;;;9.08;100.00;99855.59;5094211;28;20139;-44
2023/11/10 01:27:25;;;;;;;17.23;10.20;;;;;;;9.10;100.00;99854.53;5093915;28;20116;-44
2023/11/10 01:29:53;;;;;;;16.60;10.43;;;;;;;9.04;100.00;99854.06;5094393;28;20424;-42
2023/11/10 01:32:22;;;;;;;18.30;10.65;;;;;;;8.93;100.00;99852.03;5093655;28;20131;-45
2023/11/10 01:34:50;;;;;;;17.35;11.35;;;;;;;8.93;100.00;99856.50;5093568;28;20131;-44
2023/11/10 01:37:20;;;;;;;19.58;11.23;;;;;;;8.88;100.00;99843.50;5093335;28;20086;-46
2023/11/10 01:39:49;;;;;;;17.13;10.32;;;;;;;8.97;100.00;99836.72;5093358;28;20519;-43
2023/11/10 01:42:17;;;;;;;18.35;11.27;;;;;;;8.91;100.00;99843.28;5093441;28;20052;-44
2023/11/10 01:44:46;;;;;;;18.85;11.55;;;;;;;8.89;100.00;99835.41;5092910;28;20534;-44
2023/11/10 01:47:14;;;;;;;20.50;11.13;;;;;;;8.83;100.00;99832.25;5093341;28;20407;-44
2023/11/10 01:49:43;;;;;;;18.42;11.95;;;;;;;8.90;100.00;99833.59;5092934;28;20123;-44
2023/11/10 01:52:14;;;;;;;19.83;11.45;;;;;;;8.81;100.00;99826.19;5093807;28;20120;-44
2023/11/10 01:54:45;;;;;;;18.48;10.80;;;;;;;8.73;100.00;99825.78;5094260;28;20044;-45
2023/11/10 01:57:13;;;;;;;18.63;11.15;;;;;;;8.77;100.00;99817.50;5094120;28;20082;-45
2023/11/10 01:59:46;;;;;;;20.33;11.52;;;;;;;8.76;100.00;99817.59;5093306;28;20576;-44
2023/11/10 02:02:14;;;;;;;19.83;11.73;;;;;;;8.71;100.00;99819.69;5093327;28;20052;-44
2023/11/10 02:04:43;;;;;;;19.95;11.05;;;;;;;8.71;100.00;99809.91;5093542;28;20051;-44
2023/11/10 02:07:12;;;;;;;19.25;11.07;;;;;;;8.67;100.00;99812.81;5094022;28;20050;-44
2023/11/10 02:09:40;;;;;;;18.13;11.65;;;;;;;8.72;100.00;99813.44;5094264;28;20048;-45
2023/11/10 02:12:10;;;;;;;19.42;11.80;;;;;;;8.73;100.00;99823.97;5093491;28;20048;-47
2023/11/10 02:14:39;;;;;;;18.83;11.98;;;;;;;8.74;100.00;99817.69;5093456;28;20044;-44
2023/11/10 02:17:07;;;;;;;19.27;11.80;;;;;;;8.74;100.00;99816.84;5093941;28;20105;-44
2023/11/10 02:19:35;;;;;;;18.48;10.82;;;;;;;8.67;100.00;99807.50;5092689;28;20505;-44
2023/11/10 02:22:04;;;;;;;17.88;11.18;;;;;;;8.70;100.00;99810.00;5092837;28;20139;-44
2023/11/10 02:24:35;;;;;;;20.45;11.80;;;;;;;8.74;100.00;99809.72;5091969;28;20071;-45
2023/11/10 02:27:04;;;;;;;19.92;11.48;;;;;;;8.72;100.00;99806.31;5092547;28;20521;-44
2023/11/10 02:29:39;;;;;;;17.73;11.55;;;;;;;8.57;100.00;99804.53;5092507;28;20135;-44
2023/11/10 02:32:07;;;;;;;16.55;10.73;;;;;;;8.59;100.00;99803.53;5092530;28;20530;-44
2023/11/10 02:34:35;;;;;;;19.95;12.43;;;;;;;8.46;100.00;99797.19;5092474;28;20109;-44
2023/11/10 02:37:07;;;;;;;21.67;12.18;;;;;;;8.36;100.00;99797.81;5092894;28;20059;-45
2023/11/10 02:39:36;;;;;;;19.48;12.15;;;;;;;8.35;100.00;99801.44;5092840;28;20052;-44
2023/11/10 02:42:06;;;;;;;20.70;12.07;;;;;;;8.42;100.00;99803.66;5092862;28;20044;-42
2023/11/10 02:44:34;;;;;;;19.33;11.65;;;;;;;8.24;100.00;99789.59;5092965;28;20079;-44
2023/11/10 02:47:03;;;;;;;18.17;10.98;;;;;;;8.18;100.00;99791.75;5092174;28;20083;-45
2023/11/10 02:49:31;;;;;;;20.05;11.95;;;;;;;8.24;100.00;99797.56;5092605;28;20040;-43
2023/11/10 02:52:00;;;;;;;20.30;12.70;;;;;;;8.30;100.00;99791.91;5092744;28;20102;-45
2023/11/10 02:54:28;;;;;;;20.08;12.60;;;;;;;8.20;100.00;99787.19;5092534;28;20044;-43
2023/11/10 02:56:56;;;;;;;19.05;11.82;;;;;;;8.09;100.00;99784.31;5092714;28;20048;-44
2023/11/10 02:59:26;;;;;;;22.10;12.73;;;;;;;8.18;100.00;99789.09;5092599;28;20560;-44
2023/11/10 03:01:55;;;;;;;18.75;11.77;;;;;;;8.19;100.00;99780.16;5092627;28;20132;-43
2023/11/10 03:04:23;;;;;;;20.92;12.80;;;;;;;8.19;100.00;99774.84;5092279;28;20089;-43
2023/11/10 03:06:52;;;;;;;20.77;12.18;;;;;;;8.23;100.00;99781.72;5091909;28;20640;-44
2023/11/10 03:09:22;;;;;;;17.45;11.48;;;;;;;8.25;100.00;99779.81;5092213;28;20241;-43
2023/11/10 03:11:50;;;;;;;19.90;12.38;;;;;;;8.21;100.00;99784.47;5091955;28;20074;-44
2023/11/10 03:14:21;;;;;;;21.25;12.65;;;;;;;8.21;100.00;99783.63;5092001;28;20381;-42
2023/11/10 03:16:51;;;;;;;19.33;12.43;;;;;;;8.18;100.00;99783.78;5092843;28;20112;-49
2023/11/10 03:19:19;;;;;;;19.90;12.75;;;;;;;8.27;100.00;99783.25;5091943;28;20508;-43
2023/11/10 03:21:48;;;;;;;22.52;12.50;;;;;;;8.31;100.00;99771.50;5091800;28;20055;-48
2023/11/10 03:24:16;;;;;;;22.10;12.48;;;;;;;8.29;100.00;99776.88;5092956;28;20113;-44
2023/11/10 03:26:44;;;;;;;21.88;12.82;;;;;;;8.30;100.00;99773.31;5092145;28;20055;-43
2023/11/10 03:29:13;;;;;;;20.75;12.93;;;;;;;8.24;100.00;99772.81;5092338;28;20518;-43
2023/11/10 03:31:41;;;;;;;19.08;11.57;;;;;;;8.29;100.00;99781.34;5092727;28;20040;-44
2023/11/10 03:34:11;;;;;;;18.92;11.52;;;;;;;8.29;100.00;99773.38;5092121;28;20056;-44
2023/11/10 03:36:39;;;;;;;18.52;11.90;;;;;;;8.25;100.00;99779.81;5093925;28;20124;-44
2023/11/10 03:39:10;;;;;;;18.35;11.98;;;;;;;8.30;100.00;99777.78;5095990;28;20048;-44
2023/11/10 03:41:40;;;;;;;20.52;11.57;;;;;;;8.18;100.00;99774.00;5095846;28;20090;-44
2023/11/10 03:44:08;;;;;;;18.55;11.80;;;;;;;8.21;100.00;99767.69;5095689;28;20048;-43
2023/11/10 03:46:36;;;;;;;18.65;11.80;;;;;;;8.16;100.00;99765.25;5095756;28;20051;-43
2023/11/10 03:49:04;;;;;;;21.10;11.60;;;;;;;7.88;100.00;99763.34;5096306;28;20040;-44
2023/11/10 03:51:34;;;;;;;20.75;12.80;;;;;;;7.76;100.00;99766.69;5095757;28;20477;-43
2023/11/10 03:54:03;;;;;;;20.55;12.50;;;;;;;7.72;100.00;99765.13;5095606;28;20101;-45
2023/11/10 03:56:33;;;;;;;19.23;12.20;;;;;;;7.71;100.00;99763.41;5095712;28;20131;-46
2023/11/10 03:59:04;;;;;;;20.38;12.50;;;;;;;7.74;100.00;99760.63;5095649;28;20044;-46
2023/11/10 04:01:33;;;;;;;20.88;12.52;;;;;;;7.64;100.00;99743.50;5095734;28;20040;-44
2023/11/10 04:04:02;;;;;;;20.10;12.60;;;;;;;7.75;100.00;99757.00;5095834;28;20093;-43
2023/11/10 04:06:30;;;;;;;22.63;12.52;;;;;;;7.69;100.00;99760.00;5096171;28;20052;-44
2023/11/10 04:09:10;;;;;;;21.95;12.07;;;;;;;7.70;100.00;99751.94;5095785;28;20043;-45
2023/11/10 04:11:39;;;;;;;23.00;12.95;;;;;;;7.65;100.00;99747.84;5095895;28;20044;-44
2023/11/10 04:14:08;;;;;;;19.55;12.20;;;;;;;7.45;100.00;99755.13;5096227;28;20489;-44
2023/11/10 04:16:37;;;;;;;18.88;11.82;;;;;;;7.49;100.00;99747.00;5096022;28;20048;-44
2023/11/10 04:19:05;;;;;;;24.48;13.15;;;;;;;7.55;100.00;99747.53;5095559;28;20052;-43
2023/11/10 04:21:34;;;;;;;25.42;13.77;;;;;;;7.40;100.00;99735.09;5095888;28;20079;-43
2023/11/10 04:24:06;;;;;;;21.70;12.85;;;;;;;7.25;100.00;99731.50;5095319;28;20056;-44
2023/11/10 04:26:37;;;;;;;26.27;14.05;;;;;;;7.18;100.00;99733.63;5094584;28;20431;-45
2023/11/10 04:29:09;;;;;;;24.85;14.63;;;;;;;7.08;100.00;99742.16;5095161;28;20500;-45
2023/11/10 04:31:38;;;;;;;24.90;14.57;;;;;;;6.75;100.00;99735.03;5094741;28;20055;-44
2023/11/10 04:34:07;;;;;;;20.00;13.32;;;;;;;6.94;100.00;99731.41;5095024;28;20481;-44
2023/11/10 04:36:39;;;;;;;25.40;14.60;;;;;;;7.06;100.00;99728.13;5094571;28;20515;-44
2023/11/10 04:39:09;;;;;;;23.48;13.77;;;;;;;6.99;100.00;99714.34;5094864;28;20040;-44
2023/11/10 04:41:38;;;;;;;22.73;14.40;;;;;;;7.14;100.00;99713.50;5095273;28;20051;-44
2023/11/10 04:44:08;;;;;;;23.52;13.05;;;;;;;7.26;100.00;99721.75;5096340;28;20052;-46
2023/11/10 04:46:40;;;;;;;22.67;13.60;;;;;;;7.20;100.00;99711.44;5095695;28;20040;-46
2023/11/10 04:49:10;;;;;;;23.98;14.68;;;;;;;7.26;100.00;99722.59;5094349;28;20082;-43
2023/11/10 04:51:39;;;;;;;28.35;14.20;;;;;;;7.23;100.00;99714.78;5094877;28;20048;-43
2023/11/10 04:54:07;;;;;;;25.40;13.82;;;;;;;7.30;100.00;99716.16;5094597;28;20094;-44
2023/11/10 04:56:44;;;;;;;24.17;14.63;;;;;;;7.18;100.00;99711.53;5094639;28;20063;-45
2023/11/10 04:59:13;;;;;;;30.92;15.43;;;;;;;7.22;100.00;99713.06;5094226;28;20473;-44
2023/11/10 05:01:44;;;;;;;23.27;14.25;;;;;;;7.29;100.00;99705.66;5094756;28;20044;-45
2023/11/10 05:04:12;;;;;;;28.25;15.02;;;;;;;7.37;100.00;99700.78;5094456;28;20071;-43
2023/11/10 05:06:41;;;;;;;24.38;14.48;;;;;;;7.42;100.00;99704.00;5094215;28;20174;-44
2023/11/10 05:09:10;;;;;;;26.30;14.40;;;;;;;7.50;100.00;99704.44;5094223;28;20044;-44
2023/11/10 05:11:38;;;;;;;24.25;14.63;;;;;;;7.55;100.00;99702.41;5094189;28;20432;-44
2023/11/10 05:14:08;;;;;;;22.63;13.90;;;;;;;7.56;100.00;99700.59;5094271;28;20040;-45
2023/11/10 05:16:41;;;;;;;27.27;15.20;;;;;;;7.55;100.00;99701.53;5094147;28;20075;-45
2023/11/10 05:19:11;;;;;;;22.40;13.57;;;;;;;7.52;100.00;99693.72;5094030;28;20044;-44
2023/11/10 05:21:39;;;;;;;24.08;13.90;;;;;;;7.53;100.00;99684.81;5094269;28;20060;-43
2023/11/10 05:24:10;;;;;;;23.95;14.10;;;;;;;7.58;100.00;99683.63;5093687;28;20054;-44
2023/11/10 05:26:41;;;;;;;26.13;14.00;;;;;;;7.64;100.00;99688.59;5093803;28;20375;-45
2023/11/10 05:29:11;;;;;;;21.45;14.00;;;;;;;7.64;100.00;99687.75;5093868;28;20119;-45
2023/11/10 05:31:39;;;;;;;25.45;14.75;;;;;;;7.75;100.00;99683.53;5093893;28;20047;-43
2023/11/10 05:34:08;;;;;;;22.40;13.57;;;;;;;7.62;100.00;99692.28;5093852;28;20055;-44
2023/11/10 05:36:36;;;;;;;23.48;13.93;;;;;;;7.48;100.00;99693.06;5093436;28;20503;-43
2023/11/10 05:39:05;;;;;;;21.80;13.65;;;;;;;7.52;100.00;99694.59;5093564;28;20044;-44
2023/11/10 05:41:34;;;;;;;26.63;13.88;;;;;;;7.52;100.00;99699.03;5093348;28;20051;-45
2023/11/10 05:44:02;;;;;;;23.85;13.73;;;;;;;7.65;100.00;99694.78;5093517;28;20052;-43
2023/11/10 05:46:32;;;;;;;23.98;13.45;;;;;;;7.67;100.00;99704.34;5093536;28;20127;-43
2023/11/10 05:49:05;;;;;;;23.27;14.07;;;;;;;7.68;100.00;99705.19;5093381;28;20058;-43
2023/11/10 05:51:33;;;;;;;27.40;14.13;;;;;;;7.63;100.00;99704.63;5093325;28;20556;-43
2023/11/10 05:54:01;;;;;;;22.77;13.02;;;;;;;7.70;100.00;99696.19;5093029;28;20061;-44
2023/11/10 05:56:30;;;;;;;50.78;24.58;;;;;;;7.79;100.00;99694.81;5093140;28;20044;-43
2023/11/10 05:59:00;;;;;;;28.70;15.75;;;;;;;7.80;100.00;99693.03;5092769;28;20052;-44
2023/11/10 06:01:29;;;;;;;22.52;14.10;;;;;;;7.80;100.00;99698.34;5092841;28;20401;-43
2023/11/10 06:03:58;;;;;;;23.23;14.10;;;;;;;7.88;100.00;99702.25;5093259;28;20131;-43
2023/11/10 06:06:28;;;;;;;23.90;13.90;;;;;;;7.90;100.00;99700.38;5093508;28;20055;-45
2023/11/10 06:08:56;;;;;;;24.15;14.50;;;;;;;7.92;100.00;99692.34;5092829;28;20528;-45
2023/11/10 06:11:25;;;;;;;23.52;14.40;;;;;;;7.87;100.00;99703.22;5093710;28;20044;-44
2023/11/10 06:13:56;;;;;;;24.13;14.05;;;;;;;7.82;100.00;99705.28;5093522;28;20131;-43
2023/11/10 06:16:25;;;;;;;22.85;14.25;;;;;;;7.95;100.00;99703.63;5093007;28;20425;-43
2023/11/10 06:18:53;;;;;;;23.05;13.57;;;;;;;7.98;100.00;99702.59;5092855;28;20076;-44
2023/11/10 06:21:24;;;;;;;24.05;14.60;;;;;;;8.03;100.00;99706.69;5092729;28;20079;-43
2023/11/10 06:23:53;;;;;;;22.88;13.63;;;;;;;8.11;100.00;99711.56;5092540;28;20140;-42
2023/11/10 06:26:21;;;;;;;20.48;13.73;;;;;;;8.16;100.00;99708.63;5093000;28;20051;-44
2023/11/10 06:28:53;;;;;;;22.73;13.70;;;;;;;8.12;100.00;99700.00;5092520;28;20135;-45
2023/11/10 06:31:25;;;;;;;23.90;13.77;;;;;;;8.12;100.00;99707.97;5092545;28;20109;-43
2023/11/10 06:34:00;;;;;;;26.15;14.43;;;;;;;7.94;100.00;99712.53;5092332;28;20434;-44
2023/11/10 06:36:45;;;;;;;23.25;13.40;;;;;;;7.97;100.00;99707.03;5092057;28;20473;-43
2023/11/10 06:39:23;;;;;;;24.15;14.48;;;;;;;8.10;100.00;99703.66;5092519;28;20185;-43
2023/11/10 06:41:52;;;;;;;24.83;14.45;;;;;;;8.11;100.00;99702.75;5091947;28;20093;-42
2023/11/10 06:44:29;;;;;;;24.00;14.27;;;;;;;8.17;100.00;99703.22;5092042;28;20039;-43
2023/11/10 06:47:08;;;;;;;26.60;14.27;;;;;;;8.07;100.00;99696.72;5092187;28;20052;-46
2023/11/10 06:49:41;;;;;;;22.13;13.85;;;;;;;8.05;100.00;99698.63;5091730;28;20063;-45
2023/11/10 06:52:25;;;;;;;25.88;13.70;;;;;;;8.22;100.00;99695.84;5092189;28;20479;-45
2023/11/10 06:54:57;;;;;;;23.13;14.25;;;;;;;8.22;100.00;99701.16;5091995;28;20051;-43
2023/11/10 06:57:37;;;;;;;25.08;14.35;;;;;;;8.11;100.00;99702.75;5091852;28;20075;-44
2023/11/10 07:00:13;;;;;;;25.23;13.05;;;;;;;8.23;100.00;99707.31;5091049;28;20058;-44
2023/11/10 07:02:48;;;;;;;22.30;13.15;;;;;;;8.17;100.00;99713.84;5091763;28;20135;-44
2023/11/10 07:05:28;;;;;;;23.25;13.77;;;;;;;8.27;100.00;99719.47;5092021;28;20040;-42
2023/11/10 07:08:11;;;;;;;23.92;13.57;;;;;;;8.38;100.00;99726.84;5091704;28;20101;-43
2023/11/10 07:10:45;;;;;;;23.85;13.50;;;;;;;8.40;100.00;99733.78;5091139;28;20421;-43
2023/11/10 07:13:18;;;;;;;24.60;13.25;;;;;;;8.25;100.00;99724.03;5091359;28;20051;-44
2023/11/10 07:15:50;;;;;;;23.27;13.75;;;;;;;8.21;100.00;99714.53;5090519;28;20074;-44
2023/11/10 07:18:36;;;;;;;25.85;14.20;;;;;;;8.35;100.00;99701.31;5091517;28;20072;-43
2023/11/10 07:21:29;;;;;;;25.10;14.00;;;;;;;8.39;100.00;99702.81;5091836;28;20059;-43
2023/11/10 07:24:12;;;;;;;28.08;13.98;;;;;;;8.54;100.00;99709.88;5091314;28;20056;-45
2023/11/10 07:26:59;;;;;;;22.23;13.82;;;;;;;8.48;100.00;99707.59;5091973;28;20139;-44
2023/11/10 07:29:39;;;;;;;22.42;13.10;;;;;;;8.45;100.00;99707.78;5091763;28;20079;-42
2023/11/10 07:32:34;;;;;;;;;;;;;;;;;;;;;
2023/11/10 07:35:09;;;;;;;22.45;13.57;;;;;;;8.20;100.00;99702.16;5088506;28;20067;-44
2023/11/10 07:37:44;;;;;;;24.95;12.25;;;;;;;8.37;100.00;99712.69;5091764;28;20050;-43
2023/11/10 07:40:30;;;;;;;22.88;13.05;;;;;;;8.53;100.00;99705.53;5091768;28;20059;-44
2023/11/10 07:43:11;;;;;;;23.52;12.85;;;;;;;8.67;100.00;99709.13;5091573;28;20436;-45
2023/11/10 07:45:54;;;;;;;22.88;12.85;;;;;;;8.59;100.00;99693.69;5091974;28;20063;-44
2023/11/10 07:48:47;;;;;;;22.08;12.43;;;;;;;8.73;100.00;99696.34;5085811;28;20059;-45
2023/11/10 07:51:28;;;;;;;23.48;13.00;;;;;;;8.82;100.00;99705.56;5091805;28;20063;-43
2023/11/10 07:54:17;;;;;;;22.83;13.68;;;;;;;8.76;100.00;99698.78;5091972;28;20474;-44
2023/11/10 07:56:55;;;;;;;22.02;12.98;;;;;;;8.72;100.00;99694.63;5091774;28;20040;-43
2023/11/10 07:59:34;;;;;;;23.17;13.07;;;;;;;8.78;100.00;99690.72;5091613;28;20076;-45
2023/11/10 08:02:13;;;;;;;24.33;12.93;;;;;;;8.90;100.00;99689.97;5091487;28;20669;-44
2023/11/10 08:04:45;;;;;;;21.13;12.55;;;;;;;8.85;100.00;99684.94;5091588;28;20051;-43
2023/11/10 08:07:39;;;;;;;21.00;12.35;;;;;;;8.93;100.00;99681.81;5090973;28;20048;-44
2023/11/10 08:10:24;;;;;;;26.10;12.68;;;;;;;9.04;100.00;99687.31;5091138;28;20048;-51
2023/11/10 08:12:59;;;;;;;23.75;13.30;;;;;;;9.03;100.00;99676.75;5091548;28;20044;-42
2023/11/10 08:15:36;;;;;;;20.15;12.05;;;;;;;8.80;100.00;99676.41;5090779;28;20538;-44
2023/11/10 08:18:07;;;;;;;25.75;13.77;;;;;;;8.88;100.00;99665.28;5091035;28;20485;-44
2023/11/10 08:20:48;;;;;;;20.92;12.43;;;;;;;9.04;100.00;99665.16;5091596;28;20052;-43
2023/11/10 08:23:36;;;;;;;21.63;12.77;;;;;;;9.04;100.00;99671.34;5092841;28;20079;-45
2023/11/10 08:26:53;;;;;;;21.77;12.27;;;;;;;9.07;100.00;99668.50;5095196;28;20055;-44
2023/11/10 08:29:30;;;;;;;21.83;12.98;;;;;;;9.21;100.00;99669.41;5095074;28;20386;-44
2023/11/10 08:32:16;;;;;;;22.02;12.32;;;;;;;9.31;100.00;99671.41;5095562;28;20109;-45
2023/11/10 08:34:55;;;;;;;22.35;12.38;;;;;;;9.18;100.00;99671.34;5094761;28;20048;-46
2023/11/10 08:37:28;;;;;;;23.83;12.40;;;;;;;9.11;100.00;99674.47;5094837;28;20055;-43
2023/11/10 08:40:05;;;;;;;20.05;12.25;;;;;;;9.08;100.00;99675.53;5093047;28;20044;-44
2023/11/10 08:42:52;;;;;;;19.27;12.02;;;;;;;9.03;100.00;99674.09;5094265;28;20056;-43
2023/11/10 08:45:34;;;;;;;24.10;12.32;;;;;;;9.08;100.00;99672.88;5094138;28;20048;-42
2023/11/10 08:48:19;;;;;;;23.52;12.63;;;;;;;9.24;100.00;99670.06;5094694;28;20134;-44
2023/11/10 08:50:51;;;;;;;20.30;12.32;;;;;;;9.48;100.00;99672.97;5094174;28;20465;-42
2023/11/10 08:53:24;;;;;;;20.98;12.18;;;;;;;9.46;100.00;99664.25;5093932;28;20222;-44
2023/11/10 08:55:59;;;;;;;21.67;12.15;;;;;;;9.57;100.00;99663.53;5093938;28;20541;-44
2023/11/10 08:58:46;;;;;;;;;;;;;;;;;;;;;
2023/11/10 09:01:22;;;;;;;19.90;11.63;;;;;;;9.52;100.00;99661.16;5093910;28;20055;-42
2023/11/10 09:04:04;;;;;;;;;;;;;;;;;;;;;
2023/11/10 09:06:55;;;;;;;21.45;12.48;;;;;;;9.63;100.00;99656.00;5093910;28;20136;-42
2023/11/10 09:09:26;;;;;;;21.77;12.52;;;;;;;9.52;100.00;99645.19;5093852;28;20144;-44
2023/11/10 09:12:04;;;;;;;;;;;;;;;9.63;100.00;99650.66;5094078;28;20048;-44
2023/11/10 09:14:44;;;;;;;19.13;10.77;;;;;;;9.83;100.00;99643.16;5093390;28;19927;-45
2023/11/10 09:17:33;;;;;;;22.58;11.80;;;;;;;9.77;100.00;99638.25;5093623;28;20055;-44
2023/11/10 09:20:03;;;;;;;21.60;11.02;;;;;;;9.75;100.00;99628.56;5093512;28;20055;-43
2023/11/10 09:22:42;;;;;;;16.85;10.13;;;;;;;9.93;100.00;99630.94;5093106;28;20051;-44
2023/11/10 09:25:20;;;;;;;18.95;11.38;;;;;;;9.97;100.00;99627.13;5092729;28;20050;-45
2023/11/10 09:27:52;;;;;;;20.13;11.50;;;;;;;9.87;100.00;99620.72;5092720;28;20044;-44
2023/11/10 09:30:33;;;;;;;19.42;10.70;;;;;;;9.98;100.00;99623.50;5092758;28;20185;-44
2023/11/10 09:33:05;;;;;;;20.92;11.27;;;;;;;10.17;100.00;99623.94;5092719;28;20044;-43
2023/11/10 09:35:41;;;;;;;18.80;10.32;;;;;;;10.03;100.00;99616.03;5092572;28;20048;-43
2023/11/10 09:38:35;;;;;;;18.10;10.70;;;;;;;10.11;100.00;99613.69;5092724;28;20148;-43
2023/11/10 09:41:16;;;;;;;19.05;11.15;;;;;;;10.17;100.00;99618.63;5092676;28;20051;-43
2023/11/10 09:43:58;;;;;;;17.52;10.50;;;;;;;10.08;100.00;99611.25;5092237;28;20066;-44
2023/11/10 09:47:01;;;;;;;16.48;10.13;;;;;;;10.20;100.00;99601.56;5092729;28;20055;-44
2023/11/10 09:50:22;;;;;;;15.68;9.73;;;;;;;10.36;100.00;99609.41;5092475;28;20410;-44
2023/11/10 09:53:07;;;;;;;16.77;9.93;;;;;;;10.27;100.00;99603.75;5089923;28;20048;-44
2023/11/10 09:55:47;;;;;;;17.15;10.23;;;;;;;10.26;100.00;99602.03;5092381;28;20169;-44
2023/11/10 09:58:23;;;;;;;19.35;9.85;;;;;;;10.17;100.00;99594.63;5092095;28;20132;-45
2023/11/10 10:00:58;;;;;;;19.20;10.57;;;;;;;10.20;100.00;99583.75;5091955;28;20409;-46
2023/11/10 10:03:28;;;;;;;17.55;9.88;;;;;;;10.33;100.00;99581.16;5092124;28;20130;-44
2023/11/10 10:06:00;;;;;;;16.85;10.32;;;;;;;10.49;100.00;99572.91;5092325;28;20052;-44
2023/11/10 10:08:30;;;;;;;17.35;9.52;;;;;;;10.52;100.00;99578.03;5092116;28;20123;-42
2023/11/10 10:10:58;;;;;;;16.08;9.65;;;;;;;10.42;100.00;99583.16;5092033;28;20048;-44
2023/11/10 10:13:27;;;;;;;16.20;9.70;;;;;;;10.24;100.00;99569.31;5091814;28;20485;-43
2023/11/10 10:16:06;;;;;;;15.60;9.57;;;;;;;10.32;100.00;99566.94;5092234;28;20387;-44
2023/11/10 10:18:34;;;;;;;14.85;8.95;;;;;;;10.48;100.00;99556.06;5091921;28;20048;-42
2023/11/10 10:21:03;;;;;;;18.90;10.13;;;;;;;10.47;100.00;99548.16;5092023;28;20142;-44
2023/11/10 10:23:33;;;;;;;15.00;8.95;;;;;;;10.45;100.00;99560.75;5091621;28;20059;-45
2023/11/10 10:26:06;;;;;;;16.55;9.40;;;;;;;10.54;100.00;99547.63;5091789;28;20048;-43
2023/11/10 10:28:35;;;;;;;14.13;9.00;;;;;;;10.51;100.00;99546.97;5091979;28;20136;-45
2023/11/10 10:31:03;;;;;;;14.43;8.27;;;;;;;10.60;100.00;99541.84;5091841;28;20082;-43
2023/11/10 10:33:31;;;;;;;15.02;8.98;;;;;;;10.64;100.00;99531.84;5091782;28;20048;-44
2023/11/10 10:36:00;;;;;;;17.08;9.20;;;;;;;10.73;100.00;99527.66;5091663;28;20048;-43
2023/11/10 10:38:34;;;;;;;16.88;9.15;;;;;;;10.47;100.00;99524.19;5091601;28;20062;-44
2023/11/10 10:41:03;;;;;;;18.13;8.90;;;;;;;10.52;100.00;99506.03;5091432;28;20136;-43
2023/11/10 10:43:31;;;;;;;17.77;9.65;;;;;;;10.62;100.00;99507.09;5091629;28;20101;-44
2023/11/10 10:46:16;;;;;;;15.85;9.07;;;;;;;10.72;100.00;99485.94;5090887;28;20097;-44
2023/11/10 10:48:44;;;;;;;15.18;8.70;;;;;;;10.59;100.00;99489.47;5091261;28;20408;-43
2023/11/10 10:51:13;;;;;;;13.48;8.45;;;;;;;10.70;100.00;99483.34;5091062;28;20148;-44
2023/11/10 10:53:44;;;;;;;16.00;8.32;;;;;;;10.54;100.00;99482.78;5091064;28;20505;-43
2023/11/10 10:56:14;;;;;;;12.98;7.75;;;;;;;10.42;100.00;99467.66;5091243;28;20123;-43
2023/11/10 10:58:44;;;;;;;14.27;8.63;;;;;;;10.39;100.00;99475.88;5090759;28;20109;-47
2023/11/10 11:01:16;;;;;;;12.88;7.80;;;;;;;10.07;100.00;99479.00;5091259;28;20048;-43
2023/11/10 11:03:58;;;;;;;13.27;7.35;;;;;;;10.25;100.00;99468.88;5090865;28;20117;-44
2023/11/10 11:06:44;;;;;;;13.05;7.40;;;;;;;10.25;100.00;99456.41;5091162;28;20130;-43
2023/11/10 11:09:43;;;;;;;16.13;7.95;;;;;;;10.38;100.00;99460.84;5090890;28;20124;-45
2023/11/10 11:12:32;;;;;;;12.52;7.07;;;;;;;10.47;100.00;99453.03;5090687;28;20098;-44
2023/11/10 11:15:09;;;;;;;12.38;6.88;;;;;;;10.51;100.00;99445.66;5090975;28;20054;-45
2023/11/10 11:18:05;;;;;;;13.80;7.35;;;;;;;10.64;100.00;99435.81;5091152;28;20051;-43
2023/11/10 11:20:34;;;;;;;12.73;7.07;;;;;;;10.53;100.00;99433.09;5090629;28;20044;-44
2023/11/10 11:23:04;;;;;;;12.57;6.68;;;;;;;10.70;100.00;99435.34;5090713;28;20052;-43
2023/11/10 11:25:33;;;;;;;13.73;6.93;;;;;;;10.68;100.00;99420.44;5090561;28;20481;-45
2023/11/10 11:28:04;;;;;;;11.75;6.40;;;;;;;10.45;100.00;99414.13;5092014;28;20063;-44
2023/11/10 11:30:37;;;;;;;13.20;7.30;;;;;;;10.69;100.00;99422.97;5091877;28;20044;-44
2023/11/10 11:33:10;;;;;;;12.18;6.50;;;;;;;10.76;100.00;99413.56;5091342;28;20048;-42
2023/11/10 11:35:46;;;;;;;12.40;6.55;;;;;;;10.73;100.00;99413.81;5090637;28;20048;-43
2023/11/10 11:38:25;;;;;;;11.13;6.65;;;;;;;10.80;100.00;99407.03;5090621;28;20036;-44
2023/11/10 11:40:58;;;;;;;15.65;7.15;;;;;;;10.78;100.00;99398.28;5090452;28;20055;-44
2023/11/10 11:43:26;;;;;;;13.77;6.82;;;;;;;10.96;100.00;99400.56;5090423;28;20044;-44
2023/11/10 11:45:56;;;;;;;15.02;7.57;;;;;;;11.13;100.00;99401.00;5091013;28;20046;-43
2023/11/10 11:48:24;;;;;;;12.32;6.97;;;;;;;10.94;100.00;99397.16;5091029;28;20134;-43